sensor_id;sensor_type;location;lat;lon;timestamp;temperature;humidity
25450;DHT22;13371;52.080;5.624;2023-07-13T00:01:04;21.10;90.00
25450;DHT22;13371;52.080;5.624;2023-07-13T00:03:31;20.90;90.50
25450;DHT22;13371;52.080;5.624;2023-07-13T00:06:03;21.00;90.40
25450;DHT22;13371;52.080;5.624;2023-07-13T00:08:31;20.80;90.60
25450;DHT22;13371;52.080;5.624;2023-07-13T00:10:59;20.90;90.60
25450;DHT22;13371;52.080;5.624;2023-07-13T00:13:30;20.80;90.80
25450;DHT22;13371;52.080;5.624;2023-07-13T00:16:05;20.90;90.60
25450;DHT22;13371;52.080;5.624;2023-07-13T00:18:34;20.80;90.80
25450;DHT22;13371;52.080;5.624;2023-07-13T00:21:00;20.60;90.80
25450;DHT22;13371;52.080;5.624;2023-07-13T00:23:34;20.50;91.10
25450;DHT22;13371;52.080;5.624;2023-07-13T00:26:03;20.60;90.80
25450;DHT22;13371;52.080;5.624;2023-07-13T00:28:29;20.60;90.60
25450;DHT22;13371;52.080;5.624;2023-07-13T00:30:55;20.60;90.70
25450;DHT22;13371;52.080;5.624;2023-07-13T00:33:21;20.50;90.60
25450;DHT22;13371;52.080;5.624;2023-07-13T00:35:48;20.40;90.90
25450;DHT22;13371;52.080;5.624;2023-07-13T00:38:14;20.50;90.90
25450;DHT22;13371;52.080;5.624;2023-07-13T00:40:40;20.30;91.20
25450;DHT22;13371;52.080;5.624;2023-07-13T00:43:19;20.40;91.00
25450;DHT22;13371;52.080;5.624;2023-07-13T00:48:17;20.30;91.10
25450;DHT22;13371;52.080;5.624;2023-07-13T00:50:48;20.10;91.20
25450;DHT22;13371;52.080;5.624;2023-07-13T00:53:15;20.40;90.80
25450;DHT22;13371;52.080;5.624;2023-07-13T00:55:41;20.10;91.30
25450;DHT22;13371;52.080;5.624;2023-07-13T00:58:07;20.30;91.00
25450;DHT22;13371;52.080;5.624;2023-07-13T01:00:35;20.30;91.50
25450;DHT22;13371;52.080;5.624;2023-07-13T01:03:02;20.00;91.20
25450;DHT22;13371;52.080;5.624;2023-07-13T01:05:30;20.10;91.70
25450;DHT22;13371;52.080;5.624;2023-07-13T01:07:58;20.00;91.60
25450;DHT22;13371;52.080;5.624;2023-07-13T01:10:25;20.00;91.80
25450;DHT22;13371;52.080;5.624;2023-07-13T01:12:52;20.00;91.50
25450;DHT22;13371;52.080;5.624;2023-07-13T01:18:01;20.10;91.20
25450;DHT22;13371;52.080;5.624;2023-07-13T01:20:27;20.20;91.30
25450;DHT22;13371;52.080;5.624;2023-07-13T01:22:53;20.00;91.60
25450;DHT22;13371;52.080;5.624;2023-07-13T01:25:19;19.90;91.40
25450;DHT22;13371;52.080;5.624;2023-07-13T01:27:45;19.70;91.80
25450;DHT22;13371;52.080;5.624;2023-07-13T01:30:11;19.80;92.00
25450;DHT22;13371;52.080;5.624;2023-07-13T01:32:37;19.60;92.00
25450;DHT22;13371;52.080;5.624;2023-07-13T01:35:04;19.70;92.10
25450;DHT22;13371;52.080;5.624;2023-07-13T01:37:30;19.60;91.90
25450;DHT22;13371;52.080;5.624;2023-07-13T01:39:59;19.40;92.60
25450;DHT22;13371;52.080;5.624;2023-07-13T01:42:25;19.60;92.90
25450;DHT22;13371;52.080;5.624;2023-07-13T01:44:51;19.60;92.40
25450;DHT22;13371;52.080;5.624;2023-07-13T01:47:16;19.70;92.00
25450;DHT22;13371;52.080;5.624;2023-07-13T01:49:42;19.70;92.20
25450;DHT22;13371;52.080;5.624;2023-07-13T01:52:08;19.80;92.10
25450;DHT22;13371;52.080;5.624;2023-07-13T01:54:33;19.50;92.30
25450;DHT22;13371;52.080;5.624;2023-07-13T01:56:59;19.60;92.30
25450;DHT22;13371;52.080;5.624;2023-07-13T01:59:25;19.60;92.50
25450;DHT22;13371;52.080;5.624;2023-07-13T02:01:51;19.50;92.40
25450;DHT22;13371;52.080;5.624;2023-07-13T02:04:17;19.50;92.40
25450;DHT22;13371;52.080;5.624;2023-07-13T02:06:42;19.40;92.70
25450;DHT22;13371;52.080;5.624;2023-07-13T02:09:08;19.20;93.20
25450;DHT22;13371;52.080;5.624;2023-07-13T02:11:34;19.30;93.10
25450;DHT22;13371;52.080;5.624;2023-07-13T02:14:00;19.40;92.80
25450;DHT22;13371;52.080;5.624;2023-07-13T02:16:27;19.30;92.80
25450;DHT22;13371;52.080;5.624;2023-07-13T02:18:53;19.30;93.20
25450;DHT22;13371;52.080;5.624;2023-07-13T02:21:21;19.50;93.10
25450;DHT22;13371;52.080;5.624;2023-07-13T02:23:47;19.60;92.90
25450;DHT22;13371;52.080;5.624;2023-07-13T02:26:13;19.50;92.90
25450;DHT22;13371;52.080;5.624;2023-07-13T02:28:38;19.40;93.20
25450;DHT22;13371;52.080;5.624;2023-07-13T02:31:09;19.40;93.10
25450;DHT22;13371;52.080;5.624;2023-07-13T02:33:36;19.40;93.20
25450;DHT22;13371;52.080;5.624;2023-07-13T02:36:01;19.00;93.60
25450;DHT22;13371;52.080;5.624;2023-07-13T02:38:27;18.80;94.10
25450;DHT22;13371;52.080;5.624;2023-07-13T02:40:53;18.90;94.20
25450;DHT22;13371;52.080;5.624;2023-07-13T02:43:19;19.00;94.20
25450;DHT22;13371;52.080;5.624;2023-07-13T02:45:45;19.10;93.90
25450;DHT22;13371;52.080;5.624;2023-07-13T02:48:14;19.10;94.00
25450;DHT22;13371;52.080;5.624;2023-07-13T02:50:39;19.20;94.00
25450;DHT22;13371;52.080;5.624;2023-07-13T02:53:05;19.20;94.00
25450;DHT22;13371;52.080;5.624;2023-07-13T02:55:31;19.10;94.00
25450;DHT22;13371;52.080;5.624;2023-07-13T02:57:57;19.00;94.40
25450;DHT22;13371;52.080;5.624;2023-07-13T03:00:23;19.10;94.60
25450;DHT22;13371;52.080;5.624;2023-07-13T03:02:48;19.00;94.60
25450;DHT22;13371;52.080;5.624;2023-07-13T03:05:15;19.00;94.80
25450;DHT22;13371;52.080;5.624;2023-07-13T03:07:41;19.00;94.80
25450;DHT22;13371;52.080;5.624;2023-07-13T03:10:07;19.00;94.50
25450;DHT22;13371;52.080;5.624;2023-07-13T03:12:34;19.10;94.80
25450;DHT22;13371;52.080;5.624;2023-07-13T03:15:00;19.10;94.80
25450;DHT22;13371;52.080;5.624;2023-07-13T03:17:26;19.20;94.70
25450;DHT22;13371;52.080;5.624;2023-07-13T03:19:52;19.00;95.00
25450;DHT22;13371;52.080;5.624;2023-07-13T03:22:18;19.00;95.00
25450;DHT22;13371;52.080;5.624;2023-07-13T03:24:45;19.00;95.10
25450;DHT22;13371;52.080;5.624;2023-07-13T03:27:11;19.00;95.10
25450;DHT22;13371;52.080;5.624;2023-07-13T03:29:37;18.90;95.30
25450;DHT22;13371;52.080;5.624;2023-07-13T03:32:03;19.10;95.20
25450;DHT22;13371;52.080;5.624;2023-07-13T03:34:30;18.90;95.40
25450;DHT22;13371;52.080;5.624;2023-07-13T03:36:56;18.70;95.70
25450;DHT22;13371;52.080;5.624;2023-07-13T03:39:22;18.50;96.00
25450;DHT22;13371;52.080;5.624;2023-07-13T03:41:48;18.60;96.50
25450;DHT22;13371;52.080;5.624;2023-07-13T03:44:16;18.70;96.10
25450;DHT22;13371;52.080;5.624;2023-07-13T03:46:42;18.90;95.90
25450;DHT22;13371;52.080;5.624;2023-07-13T03:49:08;18.70;96.00
25450;DHT22;13371;52.080;5.624;2023-07-13T03:51:34;18.80;96.10
25450;DHT22;13371;52.080;5.624;2023-07-13T03:54:00;18.80;96.10
25450;DHT22;13371;52.080;5.624;2023-07-13T03:56:28;18.80;96.20
25450;DHT22;13371;52.080;5.624;2023-07-13T03:58:54;18.90;95.90
25450;DHT22;13371;52.080;5.624;2023-07-13T04:01:21;18.90;95.90
25450;DHT22;13371;52.080;5.624;2023-07-13T04:03:47;18.90;95.90
25450;DHT22;13371;52.080;5.624;2023-07-13T04:06:19;18.80;96.20
25450;DHT22;13371;52.080;5.624;2023-07-13T04:08:51;18.80;96.20
25450;DHT22;13371;52.080;5.624;2023-07-13T04:11:18;18.80;96.20
25450;DHT22;13371;52.080;5.624;2023-07-13T04:13:45;18.80;96.30
25450;DHT22;13371;52.080;5.624;2023-07-13T04:16:11;18.80;96.40
25450;DHT22;13371;52.080;5.624;2023-07-13T04:18:37;18.90;96.10
25450;DHT22;13371;52.080;5.624;2023-07-13T04:21:03;19.00;96.00
25450;DHT22;13371;52.080;5.624;2023-07-13T04:23:29;18.70;96.50
25450;DHT22;13371;52.080;5.624;2023-07-13T04:25:54;18.60;97.10
25450;DHT22;13371;52.080;5.624;2023-07-13T04:28:22;18.60;96.80
25450;DHT22;13371;52.080;5.624;2023-07-13T04:30:49;18.70;96.70
25450;DHT22;13371;52.080;5.624;2023-07-13T04:33:15;18.50;97.20
25450;DHT22;13371;52.080;5.624;2023-07-13T04:35:45;18.70;97.30
25450;DHT22;13371;52.080;5.624;2023-07-13T04:38:12;18.90;97.20
25450;DHT22;13371;52.080;5.624;2023-07-13T04:40:40;18.70;97.10
25450;DHT22;13371;52.080;5.624;2023-07-13T04:43:06;18.70;97.10
25450;DHT22;13371;52.080;5.624;2023-07-13T04:45:31;18.60;97.40
25450;DHT22;13371;52.080;5.624;2023-07-13T04:47:57;18.60;97.50
25450;DHT22;13371;52.080;5.624;2023-07-13T04:50:23;18.70;97.60
25450;DHT22;13371;52.080;5.624;2023-07-13T04:52:52;18.70;97.40
25450;DHT22;13371;52.080;5.624;2023-07-13T04:55:19;18.80;97.60
25450;DHT22;13371;52.080;5.624;2023-07-13T04:57:45;18.70;97.40
25450;DHT22;13371;52.080;5.624;2023-07-13T05:00:12;18.80;97.50
25450;DHT22;13371;52.080;5.624;2023-07-13T05:02:39;18.90;97.60
25450;DHT22;13371;52.080;5.624;2023-07-13T05:05:06;18.80;97.70
25450;DHT22;13371;52.080;5.624;2023-07-13T05:07:32;18.70;98.20
25450;DHT22;13371;52.080;5.624;2023-07-13T05:09:59;18.90;98.00
25450;DHT22;13371;52.080;5.624;2023-07-13T05:12:26;18.70;98.70
25450;DHT22;13371;52.080;5.624;2023-07-13T05:14:51;18.70;98.50
25450;DHT22;13371;52.080;5.624;2023-07-13T05:17:17;18.80;98.80
25450;DHT22;13371;52.080;5.624;2023-07-13T05:19:43;18.90;98.60
25450;DHT22;13371;52.080;5.624;2023-07-13T05:22:09;18.90;98.50
25450;DHT22;13371;52.080;5.624;2023-07-13T05:24:35;19.10;98.20
25450;DHT22;13371;52.080;5.624;2023-07-13T05:27:00;19.20;98.30
25450;DHT22;13371;52.080;5.624;2023-07-13T05:29:26;19.20;98.30
25450;DHT22;13371;52.080;5.624;2023-07-13T05:31:52;19.40;98.10
25450;DHT22;13371;52.080;5.624;2023-07-13T05:34:18;19.50;98.10
25450;DHT22;13371;52.080;5.624;2023-07-13T05:36:44;19.60;98.00
25450;DHT22;13371;52.080;5.624;2023-07-13T05:39:09;19.60;98.00
25450;DHT22;13371;52.080;5.624;2023-07-13T05:41:37;19.60;98.00
25450;DHT22;13371;52.080;5.624;2023-07-13T05:44:03;19.50;98.10
25450;DHT22;13371;52.080;5.624;2023-07-13T05:46:29;19.50;98.10
25450;DHT22;13371;52.080;5.624;2023-07-13T05:48:55;19.70;97.70
25450;DHT22;13371;52.080;5.624;2023-07-13T05:51:20;19.70;97.90
25450;DHT22;13371;52.080;5.624;2023-07-13T05:53:46;19.60;97.90
25450;DHT22;13371;52.080;5.624;2023-07-13T05:56:12;19.50;98.20
25450;DHT22;13371;52.080;5.624;2023-07-13T05:58:38;19.60;97.90
25450;DHT22;13371;52.080;5.624;2023-07-13T06:01:14;19.30;98.50
25450;DHT22;13371;52.080;5.624;2023-07-13T06:03:40;19.40;98.80
25450;DHT22;13371;52.080;5.624;2023-07-13T06:06:07;19.60;98.70
25450;DHT22;13371;52.080;5.624;2023-07-13T06:08:34;19.70;98.20
25450;DHT22;13371;52.080;5.624;2023-07-13T06:11:11;19.80;98.00
25450;DHT22;13371;52.080;5.624;2023-07-13T06:13:38;19.70;98.40
25450;DHT22;13371;52.080;5.624;2023-07-13T06:16:04;19.60;98.30
25450;DHT22;13371;52.080;5.624;2023-07-13T06:18:31;19.80;98.10
25450;DHT22;13371;52.080;5.624;2023-07-13T06:20:57;19.80;98.00
25450;DHT22;13371;52.080;5.624;2023-07-13T06:23:23;19.70;98.60
25450;DHT22;13371;52.080;5.624;2023-07-13T06:25:49;19.90;98.30
25450;DHT22;13371;52.080;5.624;2023-07-13T06:28:15;20.00;98.20
25450;DHT22;13371;52.080;5.624;2023-07-13T06:30:44;20.10;97.90
25450;DHT22;13371;52.080;5.624;2023-07-13T06:33:10;19.90;98.30
25450;DHT22;13371;52.080;5.624;2023-07-13T06:35:35;20.00;98.00
25450;DHT22;13371;52.080;5.624;2023-07-13T06:38:01;20.00;98.10
25450;DHT22;13371;52.080;5.624;2023-07-13T06:40:27;19.90;98.40
25450;DHT22;13371;52.080;5.624;2023-07-13T06:42:54;20.00;98.50
25450;DHT22;13371;52.080;5.624;2023-07-13T06:45:20;20.00;98.50
25450;DHT22;13371;52.080;5.624;2023-07-13T06:47:45;20.20;98.30
25450;DHT22;13371;52.080;5.624;2023-07-13T06:50:11;20.30;98.10
25450;DHT22;13371;52.080;5.624;2023-07-13T06:52:37;20.10;98.30
25450;DHT22;13371;52.080;5.624;2023-07-13T06:55:03;20.20;98.30
25450;DHT22;13371;52.080;5.624;2023-07-13T06:57:29;20.50;97.80
25450;DHT22;13371;52.080;5.624;2023-07-13T06:59:55;20.50;97.70
25450;DHT22;13371;52.080;5.624;2023-07-13T07:02:23;20.50;97.70
25450;DHT22;13371;52.080;5.624;2023-07-13T07:04:57;20.50;97.70
25450;DHT22;13371;52.080;5.624;2023-07-13T07:07:28;20.50;97.70
25450;DHT22;13371;52.080;5.624;2023-07-13T07:09:53;20.30;98.00
25450;DHT22;13371;52.080;5.624;2023-07-13T07:12:19;20.30;98.20
25450;DHT22;13371;52.080;5.624;2023-07-13T07:14:45;20.30;98.50
25450;DHT22;13371;52.080;5.624;2023-07-13T07:17:11;20.40;98.50
25450;DHT22;13371;52.080;5.624;2023-07-13T07:19:37;20.50;98.40
25450;DHT22;13371;52.080;5.624;2023-07-13T07:22:03;20.70;98.30
25450;DHT22;13371;52.080;5.624;2023-07-13T07:24:29;20.90;97.50
25450;DHT22;13371;52.080;5.624;2023-07-13T07:26:54;21.00;97.00
25450;DHT22;13371;52.080;5.624;2023-07-13T07:29:20;21.20;96.60
25450;DHT22;13371;52.080;5.624;2023-07-13T07:31:47;21.10;96.90
25450;DHT22;13371;52.080;5.624;2023-07-13T07:34:13;21.10;97.00
25450;DHT22;13371;52.080;5.624;2023-07-13T07:36:39;21.00;96.90
25450;DHT22;13371;52.080;5.624;2023-07-13T07:39:04;20.80;97.40
25450;DHT22;13371;52.080;5.624;2023-07-13T07:41:31;20.90;97.30
25450;DHT22;13371;52.080;5.624;2023-07-13T07:43:57;21.10;97.10
25450;DHT22;13371;52.080;5.624;2023-07-13T07:46:23;21.10;96.70
25450;DHT22;13371;52.080;5.624;2023-07-13T07:48:48;21.20;96.90
25450;DHT22;13371;52.080;5.624;2023-07-13T07:51:14;21.10;96.60
25450;DHT22;13371;52.080;5.624;2023-07-13T07:53:41;21.10;96.50
25450;DHT22;13371;52.080;5.624;2023-07-13T07:56:16;21.10;96.90
25450;DHT22;13371;52.080;5.624;2023-07-13T07:58:45;21.30;96.50
25450;DHT22;13371;52.080;5.624;2023-07-13T08:01:14;21.30;96.40
25450;DHT22;13371;52.080;5.624;2023-07-13T08:03:39;21.50;96.40
25450;DHT22;13371;52.080;5.624;2023-07-13T08:06:05;21.60;95.80
25450;DHT22;13371;52.080;5.624;2023-07-13T08:08:38;21.80;95.80
25450;DHT22;13371;52.080;5.624;2023-07-13T08:11:08;21.80;95.70
25450;DHT22;13371;52.080;5.624;2023-07-13T08:13:37;21.90;95.60
25450;DHT22;13371;52.080;5.624;2023-07-13T08:16:09;22.10;95.20
25450;DHT22;13371;52.080;5.624;2023-07-13T08:18:38;22.00;95.40
25450;DHT22;13371;52.080;5.624;2023-07-13T08:21:14;22.30;95.70
25450;DHT22;13371;52.080;5.624;2023-07-13T08:23:55;22.30;94.80
25450;DHT22;13371;52.080;5.624;2023-07-13T08:26:33;22.30;95.30
25450;DHT22;13371;52.080;5.624;2023-07-13T08:28:59;22.20;94.50
25450;DHT22;13371;52.080;5.624;2023-07-13T08:31:28;21.90;94.60
25450;DHT22;13371;52.080;5.624;2023-07-13T08:33:54;21.90;95.80
25450;DHT22;13371;52.080;5.624;2023-07-13T08:36:20;21.90;95.20
25450;DHT22;13371;52.080;5.624;2023-07-13T08:38:46;22.00;95.50
25450;DHT22;13371;52.080;5.624;2023-07-13T08:41:17;22.20;95.60
25450;DHT22;13371;52.080;5.624;2023-07-13T08:43:49;22.20;94.20
25450;DHT22;13371;52.080;5.624;2023-07-13T08:49:19;22.60;94.20
25450;DHT22;13371;52.080;5.624;2023-07-13T08:52:02;22.80;92.40
25450;DHT22;13371;52.080;5.624;2023-07-13T08:54:39;22.70;92.20
25450;DHT22;13371;52.080;5.624;2023-07-13T08:57:14;22.70;92.60
25450;DHT22;13371;52.080;5.624;2023-07-13T08:59:41;22.80;92.20
25450;DHT22;13371;52.080;5.624;2023-07-13T09:02:38;22.60;92.20
25450;DHT22;13371;52.080;5.624;2023-07-13T09:07:44;21.90;92.80
25450;DHT22;13371;52.080;5.624;2023-07-13T09:10:27;21.90;91.80
25450;DHT22;13371;52.080;5.624;2023-07-13T09:15:49;22.00;91.50
25450;DHT22;13371;52.080;5.624;2023-07-13T09:21:15;22.00;91.60
25450;DHT22;13371;52.080;5.624;2023-07-13T09:23:42;21.90;92.10
25450;DHT22;13371;52.080;5.624;2023-07-13T09:26:16;21.90;92.30
25450;DHT22;13371;52.080;5.624;2023-07-13T09:28:49;22.20;92.10
25450;DHT22;13371;52.080;5.624;2023-07-13T09:33:56;22.50;92.00
25450;DHT22;13371;52.080;5.624;2023-07-13T09:36:29;22.80;91.30
25450;DHT22;13371;52.080;5.624;2023-07-13T09:46:56;23.90;89.50
25450;DHT22;13371;52.080;5.624;2023-07-13T09:49:33;23.80;87.10
25450;DHT22;13371;52.080;5.624;2023-07-13T09:52:02;23.50;89.00
25450;DHT22;13371;52.080;5.624;2023-07-13T09:54:28;23.60;89.60
25450;DHT22;13371;52.080;5.624;2023-07-13T09:56:59;23.50;87.90
25450;DHT22;13371;52.080;5.624;2023-07-13T09:59:35;23.60;87.40
25450;DHT22;13371;52.080;5.624;2023-07-13T10:02:01;23.70;89.10
25450;DHT22;13371;52.080;5.624;2023-07-13T10:04:32;23.80;90.50
25450;DHT22;13371;52.080;5.624;2023-07-13T10:07:06;23.80;88.00
25450;DHT22;13371;52.080;5.624;2023-07-13T10:09:33;23.80;90.50
25450;DHT22;13371;52.080;5.624;2023-07-13T10:11:59;23.80;89.70
25450;DHT22;13371;52.080;5.624;2023-07-13T10:14:25;23.80;90.60
25450;DHT22;13371;52.080;5.624;2023-07-13T10:16:59;23.70;89.80
25450;DHT22;13371;52.080;5.624;2023-07-13T10:19:36;23.40;91.20
25450;DHT22;13371;52.080;5.624;2023-07-13T10:22:22;23.30;92.10
25450;DHT22;13371;52.080;5.624;2023-07-13T10:24:52;23.50;93.20
25450;DHT22;13371;52.080;5.624;2023-07-13T10:27:33;23.70;92.70
25450;DHT22;13371;52.080;5.624;2023-07-13T10:30:21;23.50;91.30
25450;DHT22;13371;52.080;5.624;2023-07-13T10:32:51;23.20;91.70
25450;DHT22;13371;52.080;5.624;2023-07-13T10:35:19;22.80;93.20
25450;DHT22;13371;52.080;5.624;2023-07-13T10:38:05;22.70;94.40
25450;DHT22;13371;52.080;5.624;2023-07-13T10:40:38;22.60;94.10
25450;DHT22;13371;52.080;5.624;2023-07-13T10:43:13;22.50;94.70
25450;DHT22;13371;52.080;5.624;2023-07-13T10:45:40;22.80;95.30
25450;DHT22;13371;52.080;5.624;2023-07-13T10:48:09;23.10;96.50
25450;DHT22;13371;52.080;5.624;2023-07-13T10:50:40;23.40;95.00
25450;DHT22;13371;52.080;5.624;2023-07-13T10:53:21;23.70;95.40
25450;DHT22;13371;52.080;5.624;2023-07-13T10:58:36;24.40;90.90
25450;DHT22;13371;52.080;5.624;2023-07-13T11:01:15;24.30;91.30
25450;DHT22;13371;52.080;5.624;2023-07-13T11:03:55;24.00;92.00
25450;DHT22;13371;52.080;5.624;2023-07-13T11:08:52;23.00;92.10
25450;DHT22;13371;52.080;5.624;2023-07-13T11:21:29;23.80;92.60
25450;DHT22;13371;52.080;5.624;2023-07-13T11:24:15;23.90;92.10
25450;DHT22;13371;52.080;5.624;2023-07-13T11:29:24;24.10;90.40
25450;DHT22;13371;52.080;5.624;2023-07-13T11:31:58;23.90;88.30
25450;DHT22;13371;52.080;5.624;2023-07-13T11:34:31;23.90;88.90
25450;DHT22;13371;52.080;5.624;2023-07-13T11:37:00;24.10;90.10
25450;DHT22;13371;52.080;5.624;2023-07-13T11:39:35;24.20;86.50
25450;DHT22;13371;52.080;5.624;2023-07-13T11:42:13;24.20;85.80
25450;DHT22;13371;52.080;5.624;2023-07-13T11:44:49;24.10;83.00
25450;DHT22;13371;52.080;5.624;2023-07-13T11:47:20;23.90;85.00
25450;DHT22;13371;52.080;5.624;2023-07-13T11:49:52;23.90;85.70
25450;DHT22;13371;52.080;5.624;2023-07-13T11:52:36;23.80;85.70
25450;DHT22;13371;52.080;5.624;2023-07-13T11:55:13;23.60;86.00
25450;DHT22;13371;52.080;5.624;2023-07-13T11:57:45;23.80;87.00
25450;DHT22;13371;52.080;5.624;2023-07-13T12:00:18;24.00;86.60
25450;DHT22;13371;52.080;5.624;2023-07-13T12:02:49;24.30;87.50
25450;DHT22;13371;52.080;5.624;2023-07-13T12:05:18;24.40;83.10
25450;DHT22;13371;52.080;5.624;2023-07-13T12:07:47;24.10;85.70
25450;DHT22;13371;52.080;5.624;2023-07-13T12:10:26;24.20;88.80
25450;DHT22;13371;52.080;5.624;2023-07-13T12:13:00;24.40;90.50
25450;DHT22;13371;52.080;5.624;2023-07-13T12:18:00;23.60;89.00
25450;DHT22;13371;52.080;5.624;2023-07-13T12:20:38;23.60;89.60
25450;DHT22;13371;52.080;5.624;2023-07-13T12:23:33;23.40;91.20
25450;DHT22;13371;52.080;5.624;2023-07-13T12:26:02;23.30;91.80
25450;DHT22;13371;52.080;5.624;2023-07-13T12:28:37;23.30;91.30
25450;DHT22;13371;52.080;5.624;2023-07-13T12:31:06;23.20;92.30
25450;DHT22;13371;52.080;5.624;2023-07-13T12:33:33;23.20;93.20
25450;DHT22;13371;52.080;5.624;2023-07-13T12:36:04;23.30;94.20
25450;DHT22;13371;52.080;5.624;2023-07-13T12:38:31;23.30;95.30
25450;DHT22;13371;52.080;5.624;2023-07-13T12:40:58;23.40;95.90
25450;DHT22;13371;52.080;5.624;2023-07-13T12:43:24;23.80;96.20
25450;DHT22;13371;52.080;5.624;2023-07-13T12:48:21;24.30;93.00
25450;DHT22;13371;52.080;5.624;2023-07-13T12:50:48;24.00;93.70
25450;DHT22;13371;52.080;5.624;2023-07-13T12:53:20;24.00;94.60
25450;DHT22;13371;52.080;5.624;2023-07-13T12:55:58;24.00;93.80
25450;DHT22;13371;52.080;5.624;2023-07-13T12:58:36;23.90;92.70
25450;DHT22;13371;52.080;5.624;2023-07-13T13:01:02;23.70;92.50
25450;DHT22;13371;52.080;5.624;2023-07-13T13:03:38;23.40;93.20
25450;DHT22;13371;52.080;5.624;2023-07-13T13:08:45;23.30;92.20
25450;DHT22;13371;52.080;5.624;2023-07-13T13:11:11;23.40;92.80
25450;DHT22;13371;52.080;5.624;2023-07-13T13:13:40;23.30;92.70
25450;DHT22;13371;52.080;5.624;2023-07-13T13:16:34;23.30;93.50
25450;DHT22;13371;52.080;5.624;2023-07-13T13:19:22;23.60;92.70
25450;DHT22;13371;52.080;5.624;2023-07-13T13:21:49;23.60;92.10
25450;DHT22;13371;52.080;5.624;2023-07-13T13:24:20;23.60;91.50
25450;DHT22;13371;52.080;5.624;2023-07-13T13:26:46;23.90;92.70
25450;DHT22;13371;52.080;5.624;2023-07-13T13:29:20;24.00;91.80
25450;DHT22;13371;52.080;5.624;2023-07-13T13:31:46;23.80;91.10
25450;DHT22;13371;52.080;5.624;2023-07-13T13:34:17;23.80;92.00
25450;DHT22;13371;52.080;5.624;2023-07-13T13:36:44;24.00;91.60
25450;DHT22;13371;52.080;5.624;2023-07-13T13:39:25;24.20;89.50
25450;DHT22;13371;52.080;5.624;2023-07-13T13:41:53;24.50;89.80
25450;DHT22;13371;52.080;5.624;2023-07-13T13:44:20;24.70;86.40
25450;DHT22;13371;52.080;5.624;2023-07-13T13:46:51;24.90;84.80
25450;DHT22;13371;52.080;5.624;2023-07-13T13:49:27;25.10;83.10
25450;DHT22;13371;52.080;5.624;2023-07-13T13:51:54;25.30;83.70
25450;DHT22;13371;52.080;5.624;2023-07-13T13:54:21;25.60;82.90
25450;DHT22;13371;52.080;5.624;2023-07-13T13:56:49;25.70;79.30
25450;DHT22;13371;52.080;5.624;2023-07-13T13:59:15;25.80;78.70
25450;DHT22;13371;52.080;5.624;2023-07-13T14:01:43;25.90;79.80
25450;DHT22;13371;52.080;5.624;2023-07-13T14:04:15;25.80;79.30
25450;DHT22;13371;52.080;5.624;2023-07-13T14:06:42;25.60;77.00
25450;DHT22;13371;52.080;5.624;2023-07-13T14:09:13;25.60;80.10
25450;DHT22;13371;52.080;5.624;2023-07-13T14:11:40;25.70;78.40
25450;DHT22;13371;52.080;5.624;2023-07-13T14:14:23;25.80;77.70
25450;DHT22;13371;52.080;5.624;2023-07-13T14:16:50;25.80;77.80
25450;DHT22;13371;52.080;5.624;2023-07-13T14:19:19;25.60;75.30
25450;DHT22;13371;52.080;5.624;2023-07-13T14:21:44;25.60;77.90
25450;DHT22;13371;52.080;5.624;2023-07-13T14:24:10;25.40;74.80
25450;DHT22;13371;52.080;5.624;2023-07-13T14:26:41;25.20;76.10
25450;DHT22;13371;52.080;5.624;2023-07-13T14:29:17;25.30;77.80
25450;DHT22;13371;52.080;5.624;2023-07-13T14:31:43;25.50;77.80
25450;DHT22;13371;52.080;5.624;2023-07-13T14:34:13;25.90;78.90
25450;DHT22;13371;52.080;5.624;2023-07-13T14:36:45;26.30;77.90
25450;DHT22;13371;52.080;5.624;2023-07-13T14:39:17;26.30;75.80
25450;DHT22;13371;52.080;5.624;2023-07-13T14:41:44;26.40;74.90
25450;DHT22;13371;52.080;5.624;2023-07-13T14:44:17;26.60;73.70
25450;DHT22;13371;52.080;5.624;2023-07-13T14:46:45;26.30;77.00
25450;DHT22;13371;52.080;5.624;2023-07-13T14:49:30;26.10;77.10
25450;DHT22;13371;52.080;5.624;2023-07-13T14:51:59;25.80;79.10
25450;DHT22;13371;52.080;5.624;2023-07-13T14:54:25;25.60;79.80
25450;DHT22;13371;52.080;5.624;2023-07-13T14:56:51;25.40;82.20
25450;DHT22;13371;52.080;5.624;2023-07-13T14:59:17;25.40;79.80
25450;DHT22;13371;52.080;5.624;2023-07-13T15:01:46;25.20;80.90
25450;DHT22;13371;52.080;5.624;2023-07-13T15:04:13;25.10;79.50
25450;DHT22;13371;52.080;5.624;2023-07-13T15:07:01;25.20;80.70
25450;DHT22;13371;52.080;5.624;2023-07-13T15:09:28;25.40;81.00
25450;DHT22;13371;52.080;5.624;2023-07-13T15:11:58;25.30;79.80
25450;DHT22;13371;52.080;5.624;2023-07-13T15:14:24;25.30;78.10
25450;DHT22;13371;52.080;5.624;2023-07-13T15:16:53;25.00;81.30
25450;DHT22;13371;52.080;5.624;2023-07-13T15:19:20;25.00;80.00
25450;DHT22;13371;52.080;5.624;2023-07-13T15:21:47;24.80;81.90
25450;DHT22;13371;52.080;5.624;2023-07-13T15:24:14;24.80;82.20
25450;DHT22;13371;52.080;5.624;2023-07-13T15:26:41;24.80;81.90
25450;DHT22;13371;52.080;5.624;2023-07-13T15:29:11;24.70;81.40
25450;DHT22;13371;52.080;5.624;2023-07-13T15:31:36;24.70;82.70
25450;DHT22;13371;52.080;5.624;2023-07-13T15:34:14;24.80;79.50
25450;DHT22;13371;52.080;5.624;2023-07-13T15:36:40;24.80;80.90
25450;DHT22;13371;52.080;5.624;2023-07-13T15:39:06;24.80;80.60
25450;DHT22;13371;52.080;5.624;2023-07-13T15:41:34;25.00;80.70
25450;DHT22;13371;52.080;5.624;2023-07-13T15:44:00;25.00;78.90
25450;DHT22;13371;52.080;5.624;2023-07-13T15:46:30;25.00;80.40
25450;DHT22;13371;52.080;5.624;2023-07-13T15:48:57;25.30;78.50
25450;DHT22;13371;52.080;5.624;2023-07-13T15:51:28;25.30;79.50
25450;DHT22;13371;52.080;5.624;2023-07-13T15:53:59;25.30;78.10
25450;DHT22;13371;52.080;5.624;2023-07-13T15:56:29;25.40;79.50
25450;DHT22;13371;52.080;5.624;2023-07-13T15:58:58;25.10;80.40
25450;DHT22;13371;52.080;5.624;2023-07-13T16:01:24;24.70;81.20
25450;DHT22;13371;52.080;5.624;2023-07-13T16:03:51;24.60;82.10
25450;DHT22;13371;52.080;5.624;2023-07-13T16:06:23;24.70;82.10
25450;DHT22;13371;52.080;5.624;2023-07-13T16:08:51;24.90;80.60
25450;DHT22;13371;52.080;5.624;2023-07-13T16:11:26;24.90;80.70
25450;DHT22;13371;52.080;5.624;2023-07-13T16:13:52;25.00;81.40
25450;DHT22;13371;52.080;5.624;2023-07-13T16:16:26;25.20;80.10
25450;DHT22;13371;52.080;5.624;2023-07-13T16:18:55;25.30;80.00
25450;DHT22;13371;52.080;5.624;2023-07-13T16:21:23;25.10;80.10
25450;DHT22;13371;52.080;5.624;2023-07-13T16:23:50;25.00;80.00
25450;DHT22;13371;52.080;5.624;2023-07-13T16:26:34;25.10;80.30
25450;DHT22;13371;52.080;5.624;2023-07-13T16:29:28;25.10;79.30
25450;DHT22;13371;52.080;5.624;2023-07-13T16:34:29;25.30;79.50
25450;DHT22;13371;52.080;5.624;2023-07-13T16:36:55;25.30;78.90